Time;durP1;ratioP1;P1;durP2;ratioP2;P2;SDS_P1;SDS_P2;PMS_P1;PMS_P2;Temp;Humidity;BMP_temperature;BMP_pressure;BME280_temperature;BME280_humidity;BME280_pressure;Samples;Min_cycle;Max_cycle;Signal;HPM_P1;HPM_P2
2022/12/18 00:00:49;;;;;;;89.95;42.10;;;-0.60;89.70;;;;;;5042073;28;20025;-75
2022/12/18 00:03:15;;;;;;;89.95;42.35;;;-0.60;89.70;;;;;;5048922;28;20048;-76
2022/12/18 00:05:50;;;;;;;91.90;43.80;;;-0.70;89.60;;;;;;5046439;28;20117;-78
2022/12/18 00:08:17;;;;;;;94.85;42.22;;;-0.70;89.50;;;;;;5049390;28;20029;-76
2022/12/18 00:10:43;;;;;;;88.28;44.25;;;-0.80;89.80;;;;;;5024989;28;20479;-75
2022/12/18 00:13:09;;;;;;;94.35;46.72;;;-0.80;89.70;;;;;;5041339;28;20148;-75
2022/12/18 00:15:36;;;;;;;84.05;41.65;;;-0.80;89.80;;;;;;5024531;28;20494;-76
2022/12/18 00:18:01;;;;;;;96.97;44.97;;;-0.80;89.80;;;;;;5028919;28;20422;-76
2022/12/18 00:20:27;;;;;;;89.53;42.13;;;-0.80;89.80;;;;;;5024493;28;20022;-76
2022/12/18 00:22:54;;;;;;;88.35;41.20;;;-0.90;89.60;;;;;;5029109;28;20029;-76
2022/12/18 00:25:19;;;;;;;90.03;41.55;;;-0.90;89.90;;;;;;5026209;28;20025;-77
2022/12/18 00:27:45;;;;;;;87.25;41.65;;;-0.90;90.00;;;;;;5028373;28;20014;-76
2022/12/18 00:30:11;;;;;;;91.15;43.90;;;-1.00;90.00;;;;;;5026201;28;20029;-76
2022/12/18 00:32:37;;;;;;;76.25;38.90;;;-1.10;90.00;;;;;;5021125;28;20087;-76
2022/12/18 00:35:03;;;;;;;88.32;41.53;;;-1.00;90.10;;;;;;5026054;28;20021;-77
2022/12/18 00:37:28;;;;;;;74.20;37.00;;;-1.10;90.10;;;;;;5027674;28;20035;-75
2022/12/18 00:39:54;;;;;;;81.13;43.58;;;-1.10;90.10;;;;;;5028568;28;20108;-77
2022/12/18 00:45:04;;;;;;;83.45;41.38;;;-1.10;89.90;;;;;;5014821;28;20411;-77
2022/12/18 00:47:30;;;;;;;82.57;40.30;;;-1.20;89.80;;;;;;5024649;28;20379;-76
2022/12/18 00:49:56;;;;;;;83.85;41.28;;;-1.20;89.80;;;;;;5029447;28;20021;-76
2022/12/18 00:52:21;;;;;;;83.55;41.33;;;-1.20;89.70;;;;;;5025502;28;20084;-76
2022/12/18 00:54:47;;;;;;;78.85;39.70;;;-1.10;89.60;;;;;;5029749;28;20039;-78
2022/12/18 00:57:12;;;;;;;76.95;40.03;;;-1.20;89.30;;;;;;5024722;28;20045;-76
2022/12/18 00:59:38;;;;;;;77.80;39.42;;;-1.20;89.00;;;;;;5017261;28;20044;-76
2022/12/18 01:02:06;;;;;;;81.05;39.58;;;-1.20;89.70;;;;;;5022808;28;20079;-76
2022/12/18 01:04:32;;;;;;;71.75;38.80;;;-1.20;89.00;;;;;;5028474;28;20025;-78
2022/12/18 01:06:59;;;;;;;76.88;39.35;;;-1.20;89.00;;;;;;5023636;28;20508;-77
2022/12/18 01:09:26;;;;;;;75.60;38.60;;;-1.20;88.80;;;;;;5028564;28;20480;-78
2022/12/18 01:11:51;;;;;;;74.95;38.03;;;-1.20;88.80;;;;;;5022079;28;20018;-77
2022/12/18 01:14:17;;;;;;;72.10;37.78;;;-1.20;88.70;;;;;;5035639;28;20491;-76
2022/12/18 01:16:43;;;;;;;70.68;37.42;;;-1.20;88.60;;;;;;5045959;28;20029;-75
2022/12/18 01:19:08;;;;;;;72.70;36.53;;;-1.20;88.50;;;;;;5047291;28;20525;-78
2022/12/18 01:21:34;;;;;;;72.15;36.22;;;-1.20;88.40;;;;;;5046918;28;20028;-77
2022/12/18 01:24:00;;;;;;;68.00;34.15;;;-1.10;88.40;;;;;;5040519;28;20033;-76
2022/12/18 01:26:29;;;;;;;75.18;38.22;;;-1.20;88.10;;;;;;5012229;28;20037;-77
2022/12/18 01:28:56;;;;;;;;;;;-1.20;87.90;;;;;;5046344;28;20120;-78
2022/12/18 01:31:24;;;;;;;66.10;34.42;;;-1.10;88.10;;;;;;5047841;28;19932;-76
2022/12/18 01:33:51;;;;;;;63.05;32.17;;;-1.20;87.70;;;;;;5043525;28;20048;-76
2022/12/18 01:36:19;;;;;;;70.30;35.28;;;-1.20;87.70;;;;;;5033401;28;20395;-76
2022/12/18 01:38:46;;;;;;;70.70;34.03;;;-1.20;87.70;;;;;;5045225;28;20049;-79
2022/12/18 01:41:11;;;;;;;68.72;33.75;;;-1.20;87.50;;;;;;5035591;28;20091;-76
2022/12/18 01:43:57;;;;;;;64.80;33.00;;;-1.20;87.30;;;;;;5044827;28;20032;-76
2022/12/18 01:46:24;;;;;;;62.58;32.58;;;-1.20;87.20;;;;;;5045889;28;20017;-77
2022/12/18 01:48:59;;;;;;;61.10;32.80;;;-1.20;87.30;;;;;;5047327;28;20029;-76
2022/12/18 01:51:30;;;;;;;63.80;31.75;;;-1.20;87.10;;;;;;5046568;28;20029;-76
2022/12/18 01:53:56;;;;;;;61.55;31.77;;;-1.10;87.00;;;;;;5036932;28;20514;-77
2022/12/18 01:56:22;;;;;;;66.57;34.10;;;-1.20;86.90;;;;;;5037326;28;20025;-76
2022/12/18 01:59:02;;;;;;;65.60;33.90;;;-1.20;86.80;;;;;;5033187;28;20035;-77
2022/12/18 02:01:30;;;;;;;64.20;34.17;;;-1.20;87.30;;;;;;5047640;28;20028;-77
2022/12/18 02:03:55;;;;;;;58.92;29.65;;;-1.20;86.80;;;;;;5044352;28;20026;-75
2022/12/18 02:06:22;;;;;;;60.25;31.08;;;-1.30;86.90;;;;;;5049829;28;20021;-76
2022/12/18 02:08:47;;;;;;;55.40;31.63;;;-1.40;87.10;;;;;;5047890;28;20060;-76
2022/12/18 02:11:38;;;;;;;57.60;31.38;;;-1.40;87.30;;;;;;5050801;28;20102;-76
2022/12/18 02:14:18;;;;;;;62.15;32.25;;;-1.50;87.40;;;;;;5035543;28;20574;-76
2022/12/18 02:17:00;;;;;;;50.65;28.23;;;-1.50;87.60;;;;;;5047525;28;20079;-76
2022/12/18 02:20:05;;;;;;;60.28;31.05;;;-1.50;87.70;;;;;;5046670;28;20051;-75
2022/12/18 02:22:49;;;;;;;58.63;31.88;;;-1.50;87.90;;;;;;5049111;28;20083;-78
2022/12/18 02:25:32;;;;;;;57.90;28.95;;;-1.50;87.70;;;;;;5047632;28;20032;-77
2022/12/18 02:28:00;;;;;;;59.60;31.88;;;-1.40;87.40;;;;;;5040062;28;20036;-78
2022/12/18 02:30:28;;;;;;;57.22;31.55;;;-1.40;87.10;;;;;;5034588;28;20029;-76
2022/12/18 02:32:57;;;;;;;59.05;29.33;;;-1.40;86.90;;;;;;5040784;28;20076;-77
2022/12/18 02:35:26;;;;;;;42.70;24.13;;;-1.30;86.70;;;;;;5024741;28;20070;-77
2022/12/18 02:37:53;;;;;;;46.72;25.70;;;-1.30;86.60;;;;;;5046307;28;20017;-77
2022/12/18 02:40:20;;;;;;;47.45;26.20;;;-1.40;86.60;;;;;;5041637;28;20356;-77
2022/12/18 02:42:46;;;;;;;51.90;25.85;;;-1.40;86.60;;;;;;5050831;28;20383;-77
2022/12/18 02:45:11;;;;;;;45.83;26.70;;;-1.40;86.60;;;;;;5046279;28;20036;-76
2022/12/18 02:47:41;;;;;;;46.97;24.50;;;-1.40;86.40;;;;;;5051033;28;20036;-76
2022/12/18 02:50:30;;;;;;;49.22;26.45;;;-1.40;86.40;;;;;;5028937;28;20057;-77
2022/12/18 02:53:07;;;;;;;48.25;25.88;;;-1.40;86.30;;;;;;5049846;28;20033;-76
2022/12/18 02:55:36;;;;;;;49.80;26.30;;;-1.30;86.00;;;;;;5049090;28;20017;-76
2022/12/18 02:58:25;;;;;;;50.53;27.08;;;-1.20;85.80;;;;;;5050563;28;20025;-76
2022/12/18 03:01:07;;;;;;;47.10;26.38;;;-1.20;85.50;;;;;;5046547;28;20025;-76
2022/12/18 03:03:41;;;;;;;47.53;27.65;;;-1.20;85.30;;;;;;5048568;28;20029;-77
2022/12/18 03:06:35;;;;;;;50.58;26.75;;;-1.30;85.10;;;;;;5042752;28;20025;-76
2022/12/18 03:09:08;;;;;;;51.25;27.52;;;-1.20;85.00;;;;;;5042998;28;20025;-76
2022/12/18 03:14:25;;;;;;;58.25;29.08;;;-1.30;84.60;;;;;;5047974;28;20537;-77
2022/12/18 03:16:55;;;;;;;52.78;27.77;;;-1.30;84.70;;;;;;5042447;28;20029;-77
2022/12/18 03:19:24;;;;;;;56.70;28.38;;;-1.30;84.80;;;;;;5044144;28;20075;-75
2022/12/18 03:21:53;;;;;;;51.80;28.73;;;-1.30;84.70;;;;;;5035844;28;20442;-75
2022/12/18 03:24:20;;;;;;;55.75;29.70;;;-1.30;84.70;;;;;;5048871;28;20060;-76
2022/12/18 03:26:50;;;;;;;61.65;30.00;;;-1.30;84.50;;;;;;5047210;28;20123;-76
2022/12/18 03:29:24;;;;;;;54.28;28.83;;;-1.20;84.30;;;;;;5031594;28;20021;-77
2022/12/18 03:31:57;;;;;;;56.13;29.58;;;-1.20;84.30;;;;;;5047349;28;20116;-77
2022/12/18 03:34:29;;;;;;;55.05;29.73;;;-1.30;84.10;;;;;;5049159;28;20041;-76
2022/12/18 03:36:55;;;;;;;54.08;28.58;;;-1.30;84.20;;;;;;5043908;28;20025;-76
2022/12/18 03:39:20;;;;;;;61.55;29.48;;;-1.30;84.30;;;;;;5043143;28;20030;-76
2022/12/18 03:42:01;;;;;;;51.65;28.58;;;-1.30;84.40;;;;;;5036431;28;20025;-77
2022/12/18 03:44:32;;;;;;;52.03;26.83;;;-1.40;84.30;;;;;;5040794;28;20029;-76
2022/12/18 03:47:16;;;;;;;51.85;27.10;;;-1.40;84.10;;;;;;5045177;28;20045;-76
2022/12/18 03:50:03;;;;;;;43.38;24.52;;;-1.40;84.20;;;;;;5044799;28;20036;-76
2022/12/18 03:52:42;;;;;;;47.63;25.35;;;-1.40;84.20;;;;;;5029163;28;20030;-77
2022/12/18 03:55:09;;;;;;;46.88;24.45;;;-1.40;84.30;;;;;;5049968;28;20391;-76
2022/12/18 03:57:36;;;;;;;45.20;24.55;;;-1.50;84.30;;;;;;5039898;28;20100;-76
2022/12/18 04:00:13;;;;;;;42.10;25.00;;;-1.50;84.50;;;;;;5041936;28;20017;-74
2022/12/18 04:02:43;;;;;;;45.97;24.25;;;-1.50;84.50;;;;;;5041175;28;20120;-76
2022/12/18 04:05:10;;;;;;;46.55;24.10;;;-1.50;84.60;;;;;;5030259;28;20744;-76
2022/12/18 04:07:38;;;;;;;41.53;23.85;;;-1.50;84.60;;;;;;5045011;28;20027;-76
2022/12/18 04:10:06;;;;;;;39.85;22.52;;;-1.50;84.60;;;;;;5048861;28;20029;-76
2022/12/18 04:12:32;;;;;;;42.15;22.40;;;-1.60;84.70;;;;;;5046254;28;20032;-75
2022/12/18 04:14:57;;;;;;;42.95;21.38;;;-1.60;84.70;;;;;;5043336;28;20098;-76
2022/12/18 04:17:23;;;;;;;48.22;25.33;;;-1.60;84.70;;;;;;5036380;28;20022;-75
2022/12/18 04:19:49;;;;;;;46.92;23.92;;;-1.50;84.70;;;;;;5046437;28;20032;-77
2022/12/18 04:22:15;;;;;;;43.92;22.63;;;-1.50;84.50;;;;;;5048795;28;21297;-76
2022/12/18 04:24:40;;;;;;;50.67;23.95;;;-1.60;84.50;;;;;;5045579;28;20037;-77
2022/12/18 04:27:06;;;;;;;41.25;23.98;;;-1.60;84.70;;;;;;5039160;28;20025;-76
2022/12/18 04:29:32;;;;;;;41.45;22.90;;;-1.60;85.30;;;;;;5044813;28;20025;-78
2022/12/18 04:31:57;;;;;;;37.47;20.90;;;-1.60;84.90;;;;;;5030518;28;20025;-77
2022/12/18 04:34:23;;;;;;;40.72;22.08;;;-1.60;84.90;;;;;;5044323;28;20037;-76
2022/12/18 04:36:48;;;;;;;39.63;20.67;;;-1.60;84.90;;;;;;5047517;28;20028;-76
2022/12/18 04:39:14;;;;;;;39.30;22.88;;;-1.60;84.90;;;;;;5041792;28;20013;-76
2022/12/18 04:41:41;;;;;;;40.85;22.27;;;-1.60;84.80;;;;;;5046826;28;20446;-77
2022/12/18 04:44:06;;;;;;;38.13;20.70;;;-1.60;84.80;;;;;;5041135;28;20017;-77
2022/12/18 04:46:32;;;;;;;35.78;20.45;;;-1.50;84.60;;;;;;5048281;28;20086;-76
2022/12/18 04:48:58;;;;;;;35.88;19.95;;;-1.60;84.50;;;;;;5042203;28;20511;-76
2022/12/18 04:51:23;;;;;;;35.75;20.52;;;-1.60;84.60;;;;;;5048267;28;20057;-76
2022/12/18 04:53:52;;;;;;;39.80;20.63;;;-1.60;84.70;;;;;;5043932;28;20445;-76
2022/12/18 04:56:18;;;;;;;35.65;19.45;;;-1.60;84.80;;;;;;5048267;28;20029;-77
2022/12/18 04:58:44;;;;;;;34.50;19.25;;;-1.60;84.70;;;;;;5045417;28;20154;-77
2022/12/18 05:01:11;;;;;;;34.40;20.17;;;-1.60;84.80;;;;;;5047575;28;20021;-76
2022/12/18 05:03:37;;;;;;;35.55;19.05;;;-1.70;84.90;;;;;;5048084;28;20086;-77
2022/12/18 05:06:04;;;;;;;38.20;19.08;;;-1.70;84.90;;;;;;5021705;28;20021;-76
2022/12/18 05:08:29;;;;;;;34.67;18.45;;;-1.70;84.80;;;;;;5048569;28;20059;-76
2022/12/18 05:11:15;;;;;;;34.50;18.20;;;-1.60;84.80;;;;;;5039500;28;20104;-76
2022/12/18 05:13:45;;;;;;;31.08;17.52;;;-1.70;84.80;;;;;;5047771;28;20537;-77
2022/12/18 05:16:12;;;;;;;32.67;18.90;;;-1.70;84.90;;;;;;5045888;28;20017;-76
2022/12/18 05:18:38;;;;;;;35.28;19.83;;;-1.70;84.80;;;;;;5034603;28;20406;-76
2022/12/18 05:21:05;;;;;;;32.45;17.15;;;-1.70;84.80;;;;;;5047681;28;20040;-78
2022/12/18 05:23:31;;;;;;;33.72;17.40;;;-1.60;84.60;;;;;;5051828;28;20159;-78
2022/12/18 05:26:02;;;;;;;32.58;19.33;;;-1.60;84.60;;;;;;5046532;28;20476;-77
2022/12/18 05:28:30;;;;;;;36.63;19.25;;;-1.60;84.60;;;;;;5052012;28;20024;-76
2022/12/18 05:30:58;;;;;;;33.78;18.52;;;-1.60;84.40;;;;;;5047155;28;20112;-77
2022/12/18 05:33:25;;;;;;;32.15;16.25;;;-1.50;84.30;;;;;;5051940;28;20070;-78
2022/12/18 05:35:56;;;;;;;31.52;18.27;;;-1.50;84.10;;;;;;5051516;28;20032;-76
2022/12/18 05:38:24;;;;;;;32.35;18.80;;;-1.60;84.00;;;;;;5035339;28;20112;-78
2022/12/18 05:40:51;;;;;;;32.15;17.60;;;-1.50;84.70;;;;;;5030188;28;20600;-77
2022/12/18 05:43:17;;;;;;;30.98;18.02;;;-1.60;84.10;;;;;;5045341;28;20025;-77
2022/12/18 05:45:43;;;;;;;34.97;18.63;;;-1.60;84.00;;;;;;5047637;28;20442;-76
2022/12/18 05:48:09;;;;;;;33.58;18.48;;;-1.50;84.00;;;;;;5050958;28;20025;-77
2022/12/18 05:50:38;;;;;;;30.75;17.17;;;-1.50;83.90;;;;;;5046652;28;20018;-76
2022/12/18 05:53:04;;;;;;;31.65;17.13;;;-1.50;83.80;;;;;;5045356;28;20033;-77
2022/12/18 05:55:34;;;;;;;32.92;19.23;;;-1.50;83.70;;;;;;5038989;28;20563;-78
2022/12/18 05:57:59;;;;;;;31.35;16.52;;;-1.40;83.70;;;;;;5050742;28;20510;-76
2022/12/18 06:00:26;;;;;;;31.85;18.75;;;-1.50;83.60;;;;;;5051512;28;20032;-76
2022/12/18 06:02:52;;;;;;;36.13;19.45;;;-1.50;83.70;;;;;;5048246;28;20028;-77
2022/12/18 06:05:18;;;;;;;32.20;18.48;;;-1.50;83.80;;;;;;5051271;28;20029;-77
2022/12/18 06:07:44;;;;;;;32.53;18.05;;;-1.50;83.80;;;;;;5041978;28;20514;-77
2022/12/18 06:10:10;;;;;;;32.00;17.10;;;-1.50;83.80;;;;;;5051072;28;20021;-76
2022/12/18 06:12:36;;;;;;;34.65;19.63;;;-1.50;83.70;;;;;;5023586;28;20061;-76
2022/12/18 06:15:02;;;;;;;38.88;18.60;;;-1.50;83.70;;;;;;5051086;28;20525;-76
2022/12/18 06:17:31;;;;;;;36.83;17.83;;;-1.50;83.80;;;;;;5047138;28;20057;-77
2022/12/18 06:19:57;;;;;;;33.58;17.88;;;-1.50;83.90;;;;;;5051290;28;20070;-78
2022/12/18 06:22:23;;;;;;;31.60;16.85;;;-1.60;84.00;;;;;;5046834;28;20024;-76
2022/12/18 06:24:48;;;;;;;31.38;16.90;;;-1.60;84.20;;;;;;5028886;28;20061;-76
2022/12/18 06:27:14;;;;;;;29.35;17.40;;;-1.60;84.40;;;;;;5048847;28;20032;-76
2022/12/18 06:29:40;;;;;;;29.75;16.42;;;-1.60;84.50;;;;;;5049327;28;20025;-77
2022/12/18 06:32:06;;;;;;;36.63;18.48;;;-1.60;84.50;;;;;;5049945;28;20028;-76
2022/12/18 06:34:32;;;;;;;33.13;18.65;;;-1.60;84.50;;;;;;5047931;28;20033;-78
2022/12/18 06:36:58;;;;;;;31.85;17.60;;;-1.60;84.40;;;;;;5037047;28;20028;-77
2022/12/18 06:39:24;;;;;;;30.63;17.02;;;-1.50;84.30;;;;;;5048209;28;20021;-77
2022/12/18 06:41:50;;;;;;;31.38;17.95;;;-1.50;84.30;;;;;;5037716;28;20033;-76
2022/12/18 06:44:15;;;;;;;33.75;18.25;;;-1.50;84.20;;;;;;5048428;28;20471;-77
2022/12/18 06:46:41;;;;;;;31.48;17.80;;;-1.60;84.10;;;;;;5050985;28;20053;-77
2022/12/18 06:49:08;;;;;;;31.00;16.75;;;-1.50;84.20;;;;;;5046574;28;20132;-75
2022/12/18 06:51:34;;;;;;;30.98;17.60;;;-1.60;84.20;;;;;;5038082;28;20455;-78
2022/12/18 06:54:00;;;;;;;32.67;18.17;;;-1.60;84.20;;;;;;5021281;28;20120;-75
2022/12/18 06:56:26;;;;;;;30.30;17.70;;;-1.50;84.20;;;;;;5038577;28;20023;-76
2022/12/18 06:58:52;;;;;;;29.95;17.35;;;-1.50;84.10;;;;;;5046584;28;20021;-76
2022/12/18 07:01:18;;;;;;;31.33;18.08;;;-1.50;84.00;;;;;;5049999;28;20071;-76
2022/12/18 07:03:44;;;;;;;28.10;17.27;;;-1.50;83.80;;;;;;5046420;28;20074;-75
2022/12/18 07:06:18;;;;;;;33.42;17.13;;;-1.50;83.70;;;;;;5026405;28;20029;-79
2022/12/18 07:08:45;;;;;;;33.10;17.85;;;-1.50;83.80;;;;;;5028159;28;20068;-77
2022/12/18 07:11:10;;;;;;;30.73;17.70;;;-1.50;83.90;;;;;;5037536;28;20029;-77
2022/12/18 07:13:36;;;;;;;30.95;15.80;;;-1.60;84.00;;;;;;5030840;28;20053;-77
2022/12/18 07:16:08;;;;;;;33.15;18.42;;;-1.60;84.10;;;;;;5042404;28;20020;-77
2022/12/18 07:18:34;;;;;;;26.98;16.33;;;-1.60;84.30;;;;;;5042720;28;20028;-77
2022/12/18 07:21:06;;;;;;;30.88;17.08;;;-1.60;84.30;;;;;;5048773;28;20029;-77
2022/12/18 07:23:33;;;;;;;30.85;17.75;;;-1.60;84.50;;;;;;5044454;28;20035;-77
2022/12/18 07:26:11;;;;;;;26.70;16.38;;;-1.60;84.50;;;;;;5046078;28;20158;-75
2022/12/18 07:28:39;;;;;;;27.65;16.77;;;-1.60;84.50;;;;;;5031412;28;20025;-78
2022/12/18 07:31:06;;;;;;;30.25;16.98;;;-1.60;84.60;;;;;;5041357;28;20029;-77
2022/12/18 07:33:33;;;;;;;27.95;15.45;;;-1.60;84.80;;;;;;5031766;28;20033;-78
2022/12/18 07:36:00;;;;;;;27.85;16.13;;;-1.60;84.80;;;;;;5033806;28;20025;-75
2022/12/18 07:38:25;;;;;;;25.23;14.55;;;-1.60;84.90;;;;;;5049406;28;20022;-76
2022/12/18 07:40:51;;;;;;;26.25;16.42;;;-1.60;84.90;;;;;;5043622;28;20074;-75
2022/12/18 07:43:17;;;;;;;27.60;15.55;;;-1.60;84.80;;;;;;5049612;28;20029;-76
2022/12/18 07:45:44;;;;;;;29.13;16.80;;;-1.50;85.10;;;;;;5045791;28;20021;-76
2022/12/18 07:48:09;;;;;;;23.65;13.43;;;-1.60;85.20;;;;;;5049300;28;20467;-77
2022/12/18 07:50:36;;;;;;;25.70;15.20;;;-1.50;85.30;;;;;;5039200;28;20032;-77
2022/12/18 07:53:04;;;;;;;24.40;14.65;;;-1.50;85.30;;;;;;5039649;28;20033;-78
2022/12/18 07:55:30;;;;;;;20.38;12.25;;;-1.50;86.00;;;;;;5045150;28;20050;-78
2022/12/18 07:57:56;;;;;;;22.27;13.40;;;-1.50;86.50;;;;;;5043487;28;20513;-78
2022/12/18 08:00:22;;;;;;;24.05;13.88;;;-1.50;86.10;;;;;;5044765;28;20108;-78
2022/12/18 08:02:47;;;;;;;22.15;13.35;;;-1.50;85.80;;;;;;5039266;28;20546;-76
2022/12/18 08:05:13;;;;;;;24.90;14.52;;;-1.50;85.70;;;;;;5037071;28;20025;-77
2022/12/18 08:07:39;;;;;;;26.13;13.90;;;-1.40;86.00;;;;;;5037286;28;20667;-76
2022/12/18 08:10:06;;;;;;;24.45;14.25;;;-1.40;85.70;;;;;;5045579;28;20028;-77
2022/12/18 08:12:32;;;;;;;21.35;12.55;;;-1.40;85.80;;;;;;5040661;28;20037;-76
2022/12/18 08:14:57;;;;;;;26.60;12.70;;;-1.40;85.50;;;;;;5029223;28;20124;-77
2022/12/18 08:17:23;;;;;;;22.25;12.73;;;-1.30;86.10;;;;;;5037340;28;20055;-77
2022/12/18 08:19:49;;;;;;;25.20;13.13;;;-1.30;85.30;;;;;;5046316;28;20374;-76
2022/12/18 08:22:14;;;;;;;22.15;12.55;;;-1.20;85.30;;;;;;5044581;28;20033;-77
2022/12/18 08:24:40;;;;;;;22.75;12.70;;;-1.20;85.50;;;;;;5037161;28;20039;-75
2022/12/18 08:27:06;;;;;;;20.33;11.38;;;-1.10;85.40;;;;;;5035679;28;20368;-76
2022/12/18 08:29:31;;;;;;;21.27;13.02;;;-1.00;85.20;;;;;;5036777;28;20033;-77
2022/12/18 08:31:57;;;;;;;19.63;12.00;;;-1.00;84.90;;;;;;5036505;28;20018;-78
2022/12/18 08:34:23;;;;;;;18.90;10.93;;;-0.90;85.10;;;;;;5046158;28;20455;-76
2022/12/18 08:36:48;;;;;;;21.65;12.63;;;-0.90;84.90;;;;;;5029915;28;20071;-76
2022/12/18 08:39:14;;;;;;;21.27;11.60;;;-0.80;86.00;;;;;;5015784;28;20369;-77
2022/12/18 08:41:39;;;;;;;27.95;13.73;;;-0.70;85.20;;;;;;5040632;28;20017;-77
2022/12/18 08:46:51;;;;;;;21.05;12.25;;;-0.40;84.70;;;;;;5042887;28;20032;-77
2022/12/18 08:49:17;;;;;;;21.05;11.68;;;-0.20;85.00;;;;;;5036036;28;20029;-75
2022/12/18 08:51:42;;;;;;;18.63;10.50;;;-0.20;83.00;;;;;;5045695;28;20025;-77
2022/12/18 08:54:12;;;;;;;19.15;11.15;;;-0.20;82.50;;;;;;5022677;28;20033;-78
2022/12/18 08:56:37;;;;;;;19.02;10.65;;;-0.10;82.30;;;;;;5033823;28;20049;-79
2022/12/18 08:59:04;;;;;;;23.00;12.27;;;-0.10;82.10;;;;;;5036483;28;20459;-76
2022/12/18 09:01:29;;;;;;;19.85;12.52;;;0.00;82.70;;;;;;5031659;28;20029;-77
2022/12/18 09:03:55;;;;;;;18.77;10.63;;;0.10;82.70;;;;;;5044750;28;20042;-77
2022/12/18 09:06:22;;;;;;;18.35;10.90;;;0.20;82.70;;;;;;5034344;28;20029;-76
2022/12/18 09:08:48;;;;;;;20.17;11.95;;;0.40;83.80;;;;;;5046282;28;20017;-76
2022/12/18 09:11:22;;;;;;;18.77;10.95;;;0.60;82.20;;;;;;5047476;28;20031;-76
2022/12/18 09:13:49;;;;;;;17.27;9.88;;;1.10;80.10;;;;;;5038693;28;20088;-77
2022/12/18 09:16:15;;;;;;;19.52;11.10;;;1.50;78.50;;;;;;5030406;28;20044;-77
2022/12/18 09:18:41;;;;;;;17.85;10.02;;;1.70;76.20;;;;;;5038270;28;20028;-77
2022/12/18 09:21:18;;;;;;;18.60;11.40;;;1.80;75.90;;;;;;5046095;28;20022;-78
2022/12/18 09:23:48;;;;;;;15.27;8.88;;;1.70;76.90;;;;;;5039478;28;20032;-76
2022/12/18 09:26:14;;;;;;;16.50;10.18;;;1.60;77.20;;;;;;5039411;28;20025;-76
2022/12/18 09:28:40;;;;;;;18.00;10.93;;;1.40;76.90;;;;;;5035905;28;20108;-77
2022/12/18 09:31:07;;;;;;;17.33;9.82;;;1.40;77.70;;;;;;5018502;28;20388;-77
2022/12/18 09:33:34;;;;;;;17.83;8.82;;;1.40;76.90;;;;;;5022409;28;20112;-77
2022/12/18 09:36:02;;;;;;;17.85;9.77;;;1.40;76.70;;;;;;5031974;28;20025;-76
2022/12/18 09:38:28;;;;;;;19.40;10.05;;;1.50;76.60;;;;;;5039363;28;20025;-76
2022/12/18 09:40:59;;;;;;;21.48;11.40;;;1.50;78.40;;;;;;5041248;28;20547;-76
2022/12/18 09:43:34;;;;;;;17.35;9.80;;;1.50;79.00;;;;;;5036945;28;20032;-75
2022/12/18 09:46:06;;;;;;;17.25;10.68;;;1.50;79.60;;;;;;5022824;28;20035;-77
2022/12/18 09:48:36;;;;;;;20.02;11.70;;;1.40;80.60;;;;;;5038951;28;20132;-77
2022/12/18 09:51:15;;;;;;;17.38;9.80;;;1.40;78.90;;;;;;5039737;28;20049;-77
2022/12/18 09:53:47;;;;;;;16.92;10.70;;;1.30;79.10;;;;;;5043429;28;20061;-77
2022/12/18 09:56:18;;;;;;;17.48;11.40;;;1.20;77.80;;;;;;5032265;28;20088;-76
2022/12/18 09:59:00;;;;;;;17.58;9.25;;;1.20;79.80;;;;;;5032568;28;20438;-76
2022/12/18 10:01:27;;;;;;;22.65;12.02;;;1.20;78.50;;;;;;5039729;28;20013;-77
2022/12/18 10:03:54;;;;;;;19.08;11.40;;;1.20;78.20;;;;;;5041562;28;20030;-76
2022/12/18 10:06:44;;;;;;;18.42;10.75;;;1.20;77.50;;;;;;5044595;28;20071;-76
2022/12/18 10:09:33;;;;;;;18.02;10.48;;;1.20;78.50;;;;;;5031276;28;20176;-75
2022/12/18 10:11:59;;;;;;;18.95;10.25;;;1.20;77.80;;;;;;5038561;28;20021;-76
2022/12/18 10:14:50;;;;;;;17.58;9.48;;;1.10;78.40;;;;;;5030317;28;20053;-76
2022/12/18 10:17:37;;;;;;;16.75;9.45;;;1.10;79.50;;;;;;5031724;28;20104;-77
2022/12/18 10:20:32;;;;;;;17.60;10.57;;;1.20;78.50;;;;;;5046788;28;20067;-75
2022/12/18 10:23:24;;;;;;;16.73;9.00;;;1.20;79.00;;;;;;5044293;28;20104;-76
2022/12/18 10:26:03;;;;;;;15.75;9.60;;;1.20;80.90;;;;;;5017013;28;20510;-76
2022/12/18 10:28:31;;;;;;;18.98;9.90;;;1.20;80.50;;;;;;5043232;28;20454;-77
2022/12/18 10:30:56;;;;;;;21.40;11.40;;;1.20;80.00;;;;;;5031536;28;20053;-76
2022/12/18 10:33:24;;;;;;;20.73;11.25;;;1.20;79.60;;;;;;5043907;28;21504;-76
2022/12/18 10:35:51;;;;;;;19.45;11.38;;;1.30;80.70;;;;;;5041834;28;20150;-76
2022/12/18 10:38:17;;;;;;;17.75;9.13;;;1.30;79.30;;;;;;5043177;28;20029;-76
2022/12/18 10:40:56;;;;;;;21.35;11.48;;;1.40;78.90;;;;;;5042010;28;20384;-76
2022/12/18 10:43:24;;;;;;;18.90;11.43;;;1.40;79.30;;;;;;5043875;28;20021;-77
2022/12/18 10:46:17;;;;;;;17.38;10.40;;;1.40;81.40;;;;;;5042453;28;20018;-76
2022/12/18 10:48:48;;;;;;;20.15;11.85;;;1.40;78.40;;;;;;5028002;28;20029;-76
2022/12/18 10:51:22;;;;;;;19.70;10.95;;;1.40;77.90;;;;;;5044079;28;20022;-75
2022/12/18 10:53:57;;;;;;;17.17;10.40;;;1.50;77.70;;;;;;5052616;28;20035;-75
2022/12/18 10:56:26;;;;;;;15.32;8.73;;;1.50;78.90;;;;;;5042321;28;20157;-75
2022/12/18 10:59:04;;;;;;;20.10;10.55;;;1.60;81.20;;;;;;5051874;28;20107;-77
2022/12/18 11:01:52;;;;;;;20.95;11.43;;;1.60;79.70;;;;;;5042469;28;20018;-75
2022/12/18 11:04:29;;;;;;;18.63;11.57;;;1.50;78.30;;;;;;5031113;28;20104;-74
2022/12/18 11:06:59;;;;;;;21.13;11.73;;;1.60;78.50;;;;;;5044147;28;20480;-76
2022/12/18 11:09:29;;;;;;;20.05;11.27;;;1.60;77.60;;;;;;5049708;28;20498;-76
2022/12/18 11:11:59;;;;;;;18.00;10.20;;;1.60;77.90;;;;;;5042726;28;20479;-76
2022/12/18 11:14:33;;;;;;;19.75;11.10;;;1.70;78.90;;;;;;5044486;28;20683;-76
2022/12/18 11:17:00;;;;;;;19.55;10.15;;;1.60;78.90;;;;;;5044258;28;20132;-76
2022/12/18 11:19:36;;;;;;;17.95;10.10;;;1.60;79.50;;;;;;5050307;28;20064;-75
2022/12/18 11:22:18;;;;;;;20.30;11.45;;;1.70;80.10;;;;;;5046138;28;20022;-77
2022/12/18 11:24:54;;;;;;;21.77;11.43;;;1.70;79.80;;;;;;5032636;28;20020;-76
2022/12/18 11:27:21;;;;;;;21.33;12.75;;;1.60;77.50;;;;;;5045934;28;20032;-75
2022/12/18 11:29:50;;;;;;;21.13;12.13;;;1.70;76.80;;;;;;5038226;28;20105;-77
2022/12/18 11:32:37;;;;;;;20.37;11.67;;;1.80;77.00;;;;;;5046558;28;20075;-77
2022/12/18 11:35:12;;;;;;;17.55;10.10;;;1.80;78.50;;;;;;5039324;28;20025;-76
2022/12/18 11:37:41;;;;;;;20.17;11.18;;;1.80;79.70;;;;;;5031662;28;20021;-77
2022/12/18 11:40:15;;;;;;;19.65;12.10;;;1.80;78.60;;;;;;5039682;28;20018;-75
2022/12/18 11:42:54;;;;;;;22.92;11.88;;;1.70;76.70;;;;;;5039745;28;20040;-75
2022/12/18 11:45:40;;;;;;;19.13;11.55;;;1.80;77.70;;;;;;5043000;28;20075;-75
2022/12/18 11:48:24;;;;;;;18.50;9.90;;;1.90;78.00;;;;;;5029924;28;20036;-77
2022/12/18 11:50:58;;;;;;;21.92;11.57;;;1.90;77.10;;;;;;5034812;28;20025;-76
2022/12/18 11:53:26;;;;;;;18.38;10.57;;;2.00;78.20;;;;;;5043264;28;20028;-77
2022/12/18 11:56:06;;;;;;;20.33;11.68;;;1.90;76.50;;;;;;5037238;28;20036;-77
2022/12/18 11:59:00;;;;;;;21.13;12.27;;;2.00;76.50;;;;;;5042744;28;20017;-77
2022/12/18 12:02:03;;;;;;;24.27;13.55;;;2.10;76.10;;;;;;5036921;28;20017;-76
2022/12/18 12:04:54;;;;;;;18.67;10.50;;;2.00;76.40;;;;;;5039226;28;20044;-76
2022/12/18 12:07:51;;;;;;;28.85;12.68;;;2.10;77.40;;;;;;5044377;28;20017;-75
2022/12/18 12:10:28;;;;;;;17.90;9.82;;;2.10;77.90;;;;;;5033600;28;20035;-77
2022/12/18 12:13:05;;;;;;;16.90;10.60;;;2.00;76.80;;;;;;5047171;28;20091;-76
2022/12/18 12:16:24;;;;;;;22.58;12.63;;;2.00;77.20;;;;;;5029634;28;20039;-77
2022/12/18 12:19:31;;;;;;;19.52;10.90;;;2.00;77.40;;;;;;5032681;28;20030;-76
2022/12/18 12:22:17;;;;;;;18.55;10.55;;;2.10;80.40;;;;;;4973632;28;20478;-75
2022/12/18 12:24:54;;;;;;;23.30;12.20;;;2.10;79.50;;;;;;5044155;28;20128;-76
2022/12/18 12:27:35;;;;;;;18.63;11.95;;;2.20;79.40;;;;;;5044751;28;20055;-75
2022/12/18 12:30:16;;;;;;;20.23;11.98;;;2.10;75.30;;;;;;5044274;28;20029;-76
2022/12/18 12:33:12;;;;;;;20.38;12.00;;;2.10;75.70;;;;;;5037575;28;20033;-77
2022/12/18 12:36:03;;;;;;;19.45;10.90;;;2.20;75.40;;;;;;5033947;28;20115;-74
2022/12/18 12:38:55;;;;;;;21.58;11.27;;;2.20;76.90;;;;;;5035008;28;20021;-77
2022/12/18 12:44:24;;;;;;;19.60;11.52;;;2.30;75.60;;;;;;5046813;28;20055;-77
2022/12/18 12:46:54;;;;;;;22.73;13.90;;;2.40;75.60;;;;;;5046770;28;20033;-76
2022/12/18 12:49:22;;;;;;;25.25;12.05;;;2.40;75.60;;;;;;5046591;28;20025;-77
2022/12/18 12:52:07;;;;;;;19.13;10.63;;;2.30;75.00;;;;;;5028333;28;20128;-77
2022/12/18 12:54:34;;;;;;;20.17;12.65;;;2.40;75.60;;;;;;5029282;28;20038;-77
2022/12/18 12:57:35;;;;;;;18.27;11.10;;;2.40;75.60;;;;;;5045591;28;20029;-77
2022/12/18 13:00:02;;;;;;;18.38;11.00;;;2.40;76.20;;;;;;4988767;28;20033;-77